createdAt,value
2023-04-18T00:00:12.295Z,40.63
2023-04-18T00:02:39.975Z,37.05
2023-04-18T00:05:07.804Z,38.42
2023-04-18T00:07:37.542Z,39.83
2023-04-18T00:10:05.612Z,33.22
2023-04-18T00:12:34.244Z,34.15
2023-04-18T00:15:02.335Z,35.80
2023-04-18T00:17:31.940Z,39.33
2023-04-18T00:19:58.922Z,31.20
2023-04-18T00:22:25.794Z,37.22
2023-04-18T00:24:52.660Z,48.30
2023-04-18T00:27:19.691Z,37.92
2023-04-18T00:29:47.215Z,38.25
2023-04-18T00:32:17.162Z,34.85
2023-04-18T00:34:44.057Z,46.40
2023-04-18T00:37:12.806Z,39.58
2023-04-18T00:39:39.498Z,36.17
2023-04-18T00:42:06.536Z,36.95
2023-04-18T00:44:33.324Z,34.80
2023-04-18T00:47:00.188Z,36.13
2023-04-18T00:49:27.329Z,46.00
2023-04-18T00:51:55.920Z,38.88
2023-04-18T00:54:23.645Z,43.13
2023-04-18T00:56:50.558Z,41.53
2023-04-18T00:59:17.309Z,42.05
2023-04-18T01:01:45.257Z,41.10
2023-04-18T01:04:12.775Z,39.15
2023-04-18T01:06:40.865Z,42.78
2023-04-18T01:09:07.651Z,39.15
2023-04-18T01:11:34.402Z,36.33
2023-04-18T01:14:02.631Z,35.95
2023-04-18T01:16:30.163Z,34.97
2023-04-18T01:18:57.146Z,41.17
2023-04-18T01:21:24.047Z,39.72
2023-04-18T01:23:51.316Z,40.63
2023-04-18T01:26:18.141Z,39.90
2023-04-18T01:28:45.078Z,42.72
2023-04-18T01:31:11.911Z,36.30
2023-04-18T01:33:38.742Z,37.10
2023-04-18T01:36:05.661Z,40.83
2023-04-18T01:38:33.072Z,43.97
2023-04-18T01:41:00.987Z,37.00
2023-04-18T01:43:27.918Z,36.42
2023-04-18T01:45:54.632Z,37.72
2023-04-18T01:48:21.468Z,37.38
2023-04-18T01:50:48.350Z,40.22
2023-04-18T01:53:15.483Z,35.45
2023-04-18T01:55:44.142Z,37.53
2023-04-18T01:58:11.256Z,36.88
2023-04-18T02:00:38.065Z,41.08
2023-04-18T02:03:05.826Z,37.22
2023-04-18T02:05:32.652Z,54.58
2023-04-18T02:07:59.622Z,39.42
2023-04-18T02:10:26.425Z,37.47
2023-04-18T02:12:53.228Z,37.40
2023-04-18T02:15:19.998Z,33.28
2023-04-18T02:17:46.741Z,35.67
2023-04-18T02:20:14.670Z,32.28
2023-04-18T02:22:41.494Z,35.33
2023-04-18T02:25:08.551Z,36.38
2023-04-18T02:27:35.399Z,33.58
2023-04-18T02:30:02.598Z,33.78
2023-04-18T02:32:33.379Z,35.30
2023-04-18T02:35:00.160Z,32.97
2023-04-18T02:37:26.951Z,37.50
2023-04-18T02:39:54.077Z,39.63
2023-04-18T02:42:20.868Z,31.58
2023-04-18T02:44:47.637Z,36.08
2023-04-18T02:47:14.332Z,34.13
2023-04-18T02:49:43.711Z,36.20
2023-04-18T02:52:10.543Z,35.13
2023-04-18T02:54:37.288Z,35.42
2023-04-18T02:57:16.323Z,31.65
2023-04-18T02:59:57.686Z,31.10
2023-04-18T03:02:53.718Z,37.00
2023-04-18T03:05:37.187Z,32.25
2023-04-18T03:08:05.884Z,36.10
2023-04-18T03:10:33.975Z,35.70
2023-04-18T03:13:02.113Z,34.85
2023-04-18T03:15:31.087Z,35.28
2023-04-18T03:17:58.550Z,30.48
2023-04-18T03:20:28.835Z,32.50
2023-04-18T03:22:55.708Z,32.67
2023-04-18T03:25:25.210Z,29.13
2023-04-18T03:27:53.717Z,28.73
2023-04-18T03:30:22.573Z,36.50
2023-04-18T03:32:53.735Z,30.00
2023-04-18T03:35:20.783Z,35.30
2023-04-18T03:37:47.658Z,32.92
2023-04-18T03:40:22.227Z,39.00
2023-04-18T03:42:51.058Z,36.42
2023-04-18T03:45:17.764Z,30.50
2023-04-18T03:47:46.628Z,31.77
2023-04-18T03:50:13.669Z,27.83
2023-04-18T03:52:42.596Z,33.38
2023-04-18T03:55:09.695Z,33.40
2023-04-18T03:57:36.505Z,31.67
2023-04-18T04:00:08.537Z,41.28
2023-04-18T04:02:42.568Z,33.47
2023-04-18T04:05:12.569Z,31.83
2023-04-18T04:07:41.911Z,33.33
2023-04-18T04:10:09.188Z,34.25
2023-04-18T04:12:36.304Z,35.42
2023-04-18T04:15:03.432Z,28.90
2023-04-18T04:17:31.202Z,38.88
2023-04-18T04:19:58.332Z,39.95
2023-04-18T04:22:25.694Z,31.38
2023-04-18T04:24:53.023Z,31.88
2023-04-18T04:27:27.007Z,30.27
2023-04-18T04:29:54.670Z,29.13
2023-04-18T04:32:21.780Z,32.80
2023-04-18T04:34:49.343Z,28.35
2023-04-18T04:37:18.655Z,30.40
2023-04-18T04:40:11.775Z,25.83
2023-04-18T04:42:53.978Z,35.95
2023-04-18T04:45:26.695Z,31.65
2023-04-18T04:47:53.607Z,30.90
2023-04-18T04:50:21.020Z,36.17
2023-04-18T04:52:47.787Z,33.33
2023-04-18T04:55:14.689Z,31.13
2023-04-18T04:57:42.921Z,34.55
2023-04-18T05:00:30.989Z,35.13
2023-04-18T05:02:57.766Z,32.03
2023-04-18T05:05:26.395Z,29.63
2023-04-18T05:07:53.215Z,36.08
2023-04-18T05:10:20.044Z,37.40
2023-04-18T05:12:46.869Z,34.67
2023-04-18T05:15:16.004Z,34.17
2023-04-18T05:17:42.765Z,35.70
2023-04-18T05:20:10.112Z,34.63
2023-04-18T05:22:36.816Z,34.47
2023-04-18T05:25:03.718Z,32.88
2023-04-18T05:27:30.626Z,31.73
2023-04-18T05:29:57.379Z,33.25
2023-04-18T05:32:24.241Z,33.13
2023-04-18T05:34:51.163Z,36.25
2023-04-18T05:37:17.952Z,34.88
2023-04-18T05:39:44.789Z,33.83
2023-04-18T05:42:11.464Z,35.30
2023-04-18T05:44:38.202Z,36.40
2023-04-18T05:47:08.057Z,39.70
2023-04-18T05:49:35.215Z,33.88
2023-04-18T05:52:01.988Z,36.13
2023-04-18T05:54:29.660Z,36.53
2023-04-18T05:56:57.274Z,38.47
2023-04-18T05:59:24.210Z,31.58
2023-04-18T06:01:51.436Z,44.58
2023-04-18T06:04:19.837Z,34.38
2023-04-18T06:06:47.211Z,38.53
2023-04-18T06:09:14.068Z,38.53
2023-04-18T06:11:40.866Z,35.03
2023-04-18T06:14:07.908Z,33.00
2023-04-18T06:16:36.574Z,35.28
2023-04-18T06:19:03.998Z,38.47
2023-04-18T06:21:30.988Z,36.70
2023-04-18T06:23:57.773Z,40.60
2023-04-18T06:26:24.600Z,36.00
2023-04-18T06:28:51.463Z,40.88
2023-04-18T06:31:18.230Z,38.92
2023-04-18T06:33:45.237Z,32.55
2023-04-18T06:36:12.047Z,38.47
2023-04-18T06:38:38.982Z,37.67
2023-04-18T06:41:05.877Z,38.20
2023-04-18T06:43:32.904Z,38.60
2023-04-18T06:46:01.229Z,40.53
2023-04-18T06:48:28.141Z,40.90
2023-04-18T06:50:54.959Z,43.47
2023-04-18T06:53:22.065Z,41.72
2023-04-18T06:55:49.109Z,36.05
2023-04-18T06:58:17.751Z,40.67
2023-04-18T07:00:47.590Z,38.22
2023-04-18T07:03:14.755Z,37.20
2023-04-18T07:05:41.685Z,39.90
2023-04-18T07:08:08.492Z,32.35
2023-04-18T07:10:35.346Z,38.10
2023-04-18T07:13:02.314Z,39.10
2023-04-18T07:15:29.173Z,37.25
2023-04-18T07:17:56.073Z,40.80
2023-04-18T07:20:22.904Z,37.25
2023-04-18T07:22:49.782Z,38.92
2023-04-18T07:25:17.533Z,38.22
2023-04-18T07:27:44.524Z,39.90
2023-04-18T07:30:11.814Z,38.38
2023-04-18T07:32:38.591Z,39.25
2023-04-18T07:35:05.629Z,38.40
2023-04-18T07:37:32.662Z,39.78
2023-04-18T07:39:59.318Z,36.90
2023-04-18T07:42:26.096Z,41.80
2023-04-18T07:44:58.439Z,41.65
2023-04-18T07:47:32.289Z,35.07
2023-04-18T07:50:30.130Z,34.70
2023-04-18T07:52:57.757Z,36.28
2023-04-18T07:55:28.701Z,38.42
2023-04-18T08:00:28.879Z,42.20
2023-04-18T08:02:56.730Z,38.88
2023-04-18T08:05:33.380Z,38.95
2023-04-18T08:08:03.427Z,42.42
2023-04-18T08:10:30.588Z,35.50
2023-04-18T08:12:57.735Z,41.35
2023-04-18T08:15:24.758Z,46.92
2023-04-18T08:17:51.730Z,45.33
2023-04-18T08:20:18.640Z,43.05
2023-04-18T08:23:02.362Z,42.05
2023-04-18T08:25:34.715Z,37.67
2023-04-18T08:28:01.910Z,41.42
2023-04-18T08:30:28.815Z,38.90
2023-04-18T08:32:55.658Z,42.83
2023-04-18T08:35:22.706Z,51.40
2023-04-18T08:37:49.958Z,49.90
2023-04-18T08:40:16.895Z,43.03
2023-04-18T08:42:46.565Z,42.05
2023-04-18T08:45:14.288Z,42.95
2023-04-18T08:47:42.181Z,41.25
2023-04-18T08:50:09.891Z,42.30
2023-04-18T08:52:37.751Z,37.47
2023-04-18T08:55:05.334Z,38.38
2023-04-18T08:57:33.349Z,45.85
2023-04-18T09:00:08.295Z,40.60
2023-04-18T09:02:42.576Z,41.85
2023-04-18T09:05:13.203Z,37.47
2023-04-18T09:07:40.605Z,50.70
2023-04-18T09:10:07.955Z,47.17
2023-04-18T09:12:42.353Z,42.78
2023-04-18T09:15:20.479Z,41.13
2023-04-18T09:17:53.872Z,37.17
2023-04-18T09:20:30.711Z,40.38
2023-04-18T09:23:00.625Z,46.80
2023-04-18T09:25:38.864Z,47.92
2023-04-18T09:28:27.979Z,42.28
2023-04-18T09:31:12.174Z,47.33
2023-04-18T09:33:57.422Z,41.00
2023-04-18T09:36:27.664Z,37.20
2023-04-18T09:38:57.048Z,40.47
2023-04-18T09:41:24.549Z,41.67
2023-04-18T09:44:08.329Z,42.42
2023-04-18T09:46:35.721Z,34.33
2023-04-18T09:49:02.631Z,38.08
2023-04-18T09:51:31.501Z,38.67
2023-04-18T09:53:58.740Z,39.22
2023-04-18T09:56:28.291Z,44.63
2023-04-18T09:58:57.550Z,39.95
2023-04-18T10:01:28.434Z,39.70
2023-04-18T10:03:56.316Z,42.63
2023-04-18T10:06:23.619Z,41.25
2023-04-18T10:08:55.535Z,40.95
2023-04-18T10:11:24.177Z,42.72
2023-04-18T10:13:54.090Z,46.92
2023-04-18T10:16:21.004Z,42.03
2023-04-18T10:18:49.765Z,38.08
2023-04-18T10:21:17.444Z,46.00
2023-04-18T10:23:48.667Z,41.90
2023-04-18T10:26:15.629Z,37.25
2023-04-18T10:28:58.538Z,43.28
2023-04-18T10:31:27.164Z,42.25
2023-04-18T10:36:28.524Z,42.40
2023-04-18T10:39:00.609Z,41.92
2023-04-18T10:41:29.316Z,39.13
2023-04-18T10:44:15.607Z,38.92
2023-04-18T10:46:51.960Z,39.70
2023-04-18T10:49:32.069Z,37.13
2023-04-18T10:52:00.833Z,38.88
2023-04-18T10:54:47.820Z,38.42
2023-04-18T10:57:15.259Z,36.35
2023-04-18T10:59:44.363Z,37.75
2023-04-18T11:02:30.696Z,33.28
2023-04-18T11:05:01.788Z,32.88
2023-04-18T11:07:48.752Z,30.77
2023-04-18T11:10:24.242Z,29.15
2023-04-18T11:12:51.660Z,36.78
2023-04-18T11:15:23.556Z,29.15
2023-04-18T11:18:01.557Z,31.77
2023-04-18T11:20:29.618Z,30.98
2023-04-18T11:23:00.784Z,27.33
2023-04-18T11:25:32.396Z,31.27
2023-04-18T11:28:00.114Z,28.60
2023-04-18T11:30:27.515Z,26.75
2023-04-18T11:32:55.963Z,28.67
2023-04-18T11:35:23.044Z,25.83
2023-04-18T11:37:51.099Z,30.20
2023-04-18T11:40:17.804Z,25.17
2023-04-18T11:42:44.706Z,29.98
2023-04-18T11:45:15.451Z,26.88
2023-04-18T11:47:43.211Z,26.08
2023-04-18T11:50:11.504Z,27.00
2023-04-18T11:52:40.057Z,25.33
2023-04-18T11:55:23.897Z,23.20
2023-04-18T11:58:01.355Z,24.95
2023-04-18T12:00:35.549Z,28.73
2023-04-18T12:03:04.647Z,29.80
2023-04-18T12:05:33.749Z,24.45
2023-04-18T12:08:13.407Z,25.00
2023-04-18T12:10:50.972Z,26.17
2023-04-18T12:13:19.026Z,26.58
2023-04-18T12:15:46.894Z,26.95
2023-04-18T12:18:15.366Z,21.58
2023-04-18T12:20:52.364Z,27.77
2023-04-18T12:23:35.418Z,24.75
2023-04-18T12:26:11.714Z,21.98
2023-04-18T12:28:38.450Z,21.13
2023-04-18T12:31:08.672Z,24.40
2023-04-18T12:33:36.600Z,24.95
2023-04-18T12:36:05.584Z,20.85
2023-04-18T12:38:32.371Z,23.20
2023-04-18T12:40:59.024Z,23.55
2023-04-18T12:43:25.855Z,26.75
2023-04-18T12:45:52.562Z,23.23
2023-04-18T12:48:19.800Z,24.67
2023-04-18T12:50:46.510Z,25.40
2023-04-18T12:53:13.968Z,22.30
2023-04-18T12:55:40.666Z,21.50
2023-04-18T12:58:07.747Z,18.80
2023-04-18T13:00:34.795Z,21.23
2023-04-18T13:03:01.738Z,20.05
2023-04-18T13:05:32.482Z,26.15
2023-04-18T13:10:33.450Z,20.38
2023-04-18T13:13:00.376Z,18.08
2023-04-18T13:15:27.467Z,20.23
2023-04-18T13:17:55.965Z,19.75
2023-04-18T13:20:22.707Z,16.77
2023-04-18T13:22:49.451Z,16.83
2023-04-18T13:25:16.827Z,19.75
2023-04-18T13:27:46.879Z,21.92
2023-04-18T13:30:14.091Z,17.33
2023-04-18T13:32:42.611Z,20.55
2023-04-18T13:35:12.887Z,18.77
2023-04-18T13:37:39.728Z,19.63
2023-04-18T13:40:07.226Z,18.00
2023-04-18T13:42:34.292Z,18.30
2023-04-18T13:45:01.033Z,19.13
2023-04-18T13:47:27.832Z,20.13
2023-04-18T13:49:54.610Z,19.92
2023-04-18T13:52:21.313Z,24.75
2023-04-18T13:54:48.197Z,17.83
2023-04-18T13:57:15.269Z,16.15
2023-04-18T13:59:42.083Z,22.75
2023-04-18T14:02:10.475Z,18.42
2023-04-18T14:04:37.754Z,21.55
2023-04-18T14:07:06.335Z,22.38
2023-04-18T14:09:33.140Z,17.63
2023-04-18T14:11:59.943Z,16.83
2023-04-18T14:14:26.662Z,16.65
2023-04-18T14:16:54.023Z,20.13
2023-04-18T14:19:20.937Z,17.63
2023-04-18T14:21:48.411Z,18.25
2023-04-18T14:24:15.443Z,22.40
2023-04-18T14:26:42.212Z,22.30
2023-04-18T14:29:09.007Z,21.92
2023-04-18T14:31:35.895Z,24.50
2023-04-18T14:34:05.691Z,18.95
2023-04-18T14:36:32.707Z,15.98
2023-04-18T14:39:02.644Z,21.52
2023-04-18T14:41:29.898Z,25.40
2023-04-18T14:43:56.667Z,22.92
2023-04-18T14:46:23.384Z,21.55
2023-04-18T14:48:50.113Z,18.25
2023-04-18T14:51:17.123Z,20.98
2023-04-18T14:53:45.585Z,18.95
2023-04-18T14:56:12.658Z,20.00
2023-04-18T14:58:46.841Z,24.88
2023-04-18T15:01:13.634Z,22.02
2023-04-18T15:03:41.110Z,16.92
2023-04-18T15:06:08.010Z,21.42
2023-04-18T15:08:34.729Z,21.33
2023-04-18T15:11:05.953Z,23.60
2023-04-18T15:13:33.261Z,17.15
2023-04-18T15:16:00.034Z,19.33
2023-04-18T15:18:27.470Z,16.52
2023-04-18T15:20:54.195Z,19.35
2023-04-18T15:23:21.330Z,18.52
2023-04-18T15:25:47.997Z,16.65
2023-04-18T15:28:18.611Z,19.02
2023-04-18T15:30:46.341Z,22.13
2023-04-18T15:33:13.609Z,21.27
2023-04-18T15:35:40.693Z,27.80
2023-04-18T15:38:07.539Z,22.05
2023-04-18T15:40:36.161Z,22.27
2023-04-18T15:43:03.224Z,21.73
2023-04-18T15:45:30.301Z,21.15
2023-04-18T15:47:57.609Z,20.23
2023-04-18T15:50:24.456Z,17.83
2023-04-18T15:52:51.276Z,20.80
2023-04-18T15:55:18.003Z,21.65
2023-04-18T15:57:44.927Z,19.58
2023-04-18T16:00:19.498Z,17.27
2023-04-18T16:02:47.285Z,21.20
2023-04-18T16:05:17.551Z,18.92
2023-04-18T16:08:04.564Z,21.13
2023-04-18T16:10:31.458Z,22.27
2023-04-18T16:12:59.487Z,19.75
2023-04-18T16:15:26.253Z,23.00
2023-04-18T16:17:53.090Z,19.13
2023-04-18T16:20:20.061Z,18.25
2023-04-18T16:22:47.150Z,20.38
2023-04-18T16:25:14.624Z,17.83
2023-04-18T16:27:43.147Z,19.70
2023-04-18T16:30:10.188Z,20.02
2023-04-18T16:32:38.125Z,13.80
2023-04-18T16:35:07.617Z,15.95
2023-04-18T16:37:34.442Z,16.55
2023-04-18T16:40:01.284Z,17.90
2023-04-18T16:42:28.145Z,17.17
2023-04-18T16:44:54.948Z,14.70
2023-04-18T16:47:21.734Z,20.40
2023-04-18T16:49:48.746Z,19.20
2023-04-18T16:52:16.921Z,19.48
2023-04-18T16:54:46.532Z,15.57
2023-04-18T16:57:13.347Z,15.02
2023-04-18T16:59:41.718Z,14.55
2023-04-18T17:02:08.473Z,15.82
2023-04-18T17:04:35.494Z,14.85
2023-04-18T17:07:05.121Z,15.82
2023-04-18T17:09:31.916Z,16.17
2023-04-18T17:11:59.670Z,17.05
2023-04-18T17:14:31.982Z,16.85
2023-04-18T17:16:58.666Z,14.77
2023-04-18T17:19:26.199Z,15.43
2023-04-18T17:21:52.932Z,16.95
2023-04-18T17:24:22.333Z,17.10
2023-04-18T17:26:49.957Z,18.27
2023-04-18T17:29:17.009Z,18.73
2023-04-18T17:31:43.864Z,17.52
2023-04-18T17:34:10.839Z,18.33
2023-04-18T17:36:37.601Z,26.50
2023-04-18T17:39:07.317Z,20.83
2023-04-18T17:41:37.894Z,21.23
2023-04-18T17:44:05.615Z,19.40
2023-04-18T17:46:32.672Z,23.52
2023-04-18T17:48:59.864Z,22.65
2023-04-18T17:51:27.414Z,23.40
2023-04-18T17:53:54.962Z,21.75
2023-04-18T17:56:23.545Z,22.13
2023-04-18T17:58:50.601Z,23.70
2023-04-18T18:01:18.994Z,23.60
2023-04-18T18:03:46.838Z,25.02
2023-04-18T18:06:14.677Z,27.70
2023-04-18T18:08:42.696Z,30.15
2023-04-18T18:11:10.577Z,24.73
2023-04-18T18:13:38.877Z,28.40
2023-04-18T18:16:06.367Z,26.42
2023-04-18T18:18:33.192Z,29.13
2023-04-18T18:20:59.914Z,33.13
2023-04-18T18:23:26.756Z,28.92
2023-04-18T18:25:56.446Z,33.72
2023-04-18T18:28:23.257Z,29.42
2023-04-18T18:30:50.019Z,30.13
2023-04-18T18:33:16.773Z,31.23
2023-04-18T18:35:43.548Z,34.15
2023-04-18T18:38:11.072Z,30.90
2023-04-18T18:40:37.761Z,32.40
2023-04-18T18:43:04.706Z,32.88
2023-04-18T18:45:31.712Z,31.83
2023-04-18T18:47:58.705Z,35.80
2023-04-18T18:50:25.443Z,32.17
2023-04-18T18:52:54.738Z,33.63
2023-04-18T18:55:21.611Z,35.55
2023-04-18T18:57:48.388Z,35.30
2023-04-18T19:00:15.363Z,36.05
2023-04-18T19:02:42.225Z,32.03
2023-04-18T19:05:09.586Z,32.97
2023-04-18T19:07:36.337Z,34.42
2023-04-18T19:10:03.486Z,31.90
2023-04-18T19:12:34.726Z,33.92
2023-04-18T19:15:01.761Z,33.72
2023-04-18T19:17:28.787Z,34.00
2023-04-18T19:19:58.048Z,34.75
2023-04-18T19:22:24.900Z,32.83
2023-04-18T19:24:52.031Z,38.40
2023-04-18T19:27:18.760Z,38.40
2023-04-18T19:29:45.726Z,36.95
2023-04-18T19:32:12.471Z,40.63
2023-04-18T19:34:39.377Z,32.60
2023-04-18T19:37:08.655Z,37.47
2023-04-18T19:39:35.389Z,35.83
2023-04-18T19:42:03.804Z,42.40
2023-04-18T19:44:32.946Z,38.28
2023-04-18T19:47:00.763Z,37.90
2023-04-18T19:49:27.574Z,36.50
2023-04-18T19:51:54.397Z,41.05
2023-04-18T19:54:22.046Z,45.28
2023-04-18T19:56:49.003Z,41.47
2023-04-18T19:59:16.244Z,39.05
2023-04-18T20:01:43.213Z,35.17
2023-04-18T20:04:10.183Z,38.63
2023-04-18T20:06:37.548Z,37.53
2023-04-18T20:09:05.519Z,42.17
2023-04-18T20:11:32.462Z,36.28
2023-04-18T20:13:59.354Z,36.78
2023-04-18T20:16:26.537Z,41.42
2023-04-18T20:18:54.880Z,37.15
2023-04-18T20:21:21.927Z,37.80
2023-04-18T20:23:48.667Z,43.28
2023-04-18T20:26:15.532Z,38.95
2023-04-18T20:28:42.364Z,41.40
2023-04-18T20:31:11.370Z,43.47
2023-04-18T20:33:38.363Z,34.60
2023-04-18T20:36:06.399Z,34.72
2023-04-18T20:38:33.695Z,34.72
2023-04-18T20:41:00.815Z,35.10
2023-04-18T20:43:28.737Z,40.88
2023-04-18T20:45:59.655Z,40.17
2023-04-18T20:48:26.486Z,40.08
2023-04-18T20:50:53.433Z,36.20
2023-04-18T20:53:21.630Z,36.97
2023-04-18T20:55:48.800Z,38.95
2023-04-18T20:58:16.094Z,32.47
2023-04-18T21:00:44.504Z,37.00
2023-04-18T21:03:15.595Z,40.20
2023-04-18T21:05:43.529Z,35.38
2023-04-18T21:08:11.535Z,37.17
2023-04-18T21:10:38.478Z,35.58
2023-04-18T21:13:05.373Z,35.90
2023-04-18T21:15:32.067Z,31.63
2023-04-18T21:18:00.135Z,35.45
2023-04-18T21:20:26.902Z,37.35
2023-04-18T21:22:53.644Z,34.58
2023-04-18T21:25:21.338Z,33.80
2023-04-18T21:27:50.862Z,30.80
2023-04-18T21:30:17.763Z,37.15
2023-04-18T21:32:45.787Z,31.40
2023-04-18T21:35:12.652Z,34.20
2023-04-18T21:37:39.374Z,34.05
2023-04-18T21:40:07.056Z,35.65
2023-04-18T21:42:35.528Z,33.35
2023-04-18T21:45:04.870Z,31.67
2023-04-18T21:47:32.837Z,29.65
2023-04-18T21:49:59.557Z,28.92
2023-04-18T21:52:28.596Z,29.75
2023-04-18T21:54:55.916Z,33.13
2023-04-18T21:57:22.740Z,39.67
2023-04-18T21:59:49.500Z,35.08
2023-04-18T22:02:16.362Z,34.60
2023-04-18T22:04:44.105Z,32.58
2023-04-18T22:07:12.282Z,32.88
2023-04-18T22:09:39.040Z,29.92
2023-04-18T22:12:05.855Z,30.50
2023-04-18T22:14:32.629Z,30.75
2023-04-18T22:17:01.857Z,28.17
2023-04-18T22:19:29.557Z,34.92
2023-04-18T22:21:59.298Z,34.42
2023-04-18T22:24:25.997Z,31.00
2023-04-18T22:26:53.193Z,30.27
2023-04-18T22:29:19.902Z,35.20
2023-04-18T22:31:46.830Z,32.13
2023-04-18T22:34:13.978Z,41.70
2023-04-18T22:36:42.689Z,32.17
2023-04-18T22:39:09.555Z,32.63
2023-04-18T22:41:36.193Z,40.80
2023-04-18T22:44:04.619Z,33.03
2023-04-18T22:46:32.691Z,34.20
2023-04-18T22:48:59.660Z,32.80
2023-04-18T22:51:28.469Z,42.60
2023-04-18T22:53:58.735Z,31.80
2023-04-18T22:56:25.511Z,33.38
2023-04-18T22:58:52.326Z,34.47
2023-04-18T23:01:19.119Z,38.83
2023-04-18T23:03:46.531Z,32.33
2023-04-18T23:06:13.548Z,34.15
2023-04-18T23:08:40.372Z,35.88
2023-04-18T23:11:07.186Z,36.88
2023-04-18T23:13:33.929Z,37.45
2023-04-18T23:16:00.989Z,35.60
2023-04-18T23:18:30.905Z,35.97
2023-04-18T23:20:57.732Z,35.78
2023-04-18T23:23:24.485Z,39.28
2023-04-18T23:25:52.018Z,33.78
2023-04-18T23:28:18.886Z,36.38
2023-04-18T23:30:45.769Z,37.08
2023-04-18T23:33:12.468Z,39.83
2023-04-18T23:35:39.101Z,34.28
2023-04-18T23:38:05.943Z,31.23
2023-04-18T23:40:32.710Z,37.63
2023-04-18T23:42:59.426Z,31.73
2023-04-18T23:45:26.230Z,34.67
2023-04-18T23:47:53.108Z,36.35
2023-04-18T23:50:20.075Z,33.03
2023-04-18T23:52:46.803Z,35.92
2023-04-18T23:55:13.871Z,35.05
2023-04-18T23:57:40.638Z,34.70
